Time;durP1;ratioP1;P1;durP2;ratioP2;P2;SDS_P1;SDS_P2;PMS_P1;PMS_P2;Temp;Humidity;BMP_temperature;BMP_pressure;BME280_temperature;BME280_humidity;BME280_pressure;Samples;Min_cycle;Max_cycle;Signal;HPM_P1;HPM_P2
2021/10/25 00:01:54;;;;;;;3.97;3.58;;;;;13.00;101696.00;;;;5027521;28;21022;-78
2021/10/25 00:04:22;;;;;;;4.43;3.63;;;;;13.00;101695.00;;;;5028251;28;20216;-78
2021/10/25 00:06:51;;;;;;;4.28;3.13;;;;;13.00;101691.00;;;;5028629;28;20680;-78
2021/10/25 00:09:19;;;;;;;5.55;3.80;;;;;13.00;101690.00;;;;5033057;28;20298;-78
2021/10/25 00:11:46;;;;;;;3.63;3.15;;;;;13.00;101691.00;;;;5038126;28;20195;-78
2021/10/25 00:14:13;;;;;;;5.50;3.35;;;;;13.00;101694.00;;;;5046194;28;21253;-78
2021/10/25 00:16:42;;;;;;;4.68;3.58;;;;;13.00;101685.00;;;;5035336;28;20204;-78
2021/10/25 00:19:09;;;;;;;4.50;3.28;;;;;13.00;101693.00;;;;5028747;28;20306;-78
2021/10/25 00:21:36;;;;;;;4.65;3.17;;;;;12.90;101694.00;;;;5030636;28;20778;-78
2021/10/25 00:24:06;;;;;;;4.47;3.45;;;;;12.90;101695.00;;;;5030380;28;20200;-78
2021/10/25 00:26:34;;;;;;;4.05;3.33;;;;;12.90;101691.00;;;;5029100;28;20204;-78
2021/10/25 00:29:02;;;;;;;5.93;2.95;;;;;12.90;101694.00;;;;5028476;28;20203;-78
2021/10/25 00:31:29;;;;;;;4.60;3.40;;;;;12.90;101685.00;;;;5028539;28;20216;-78
2021/10/25 00:33:57;;;;;;;5.13;3.50;;;;;12.90;101688.00;;;;5032357;28;20206;-78
2021/10/25 00:36:24;;;;;;;5.97;3.83;;;;;12.90;101682.00;;;;5028860;28;20207;-78
2021/10/25 00:38:51;;;;;;;4.38;3.67;;;;;12.90;101680.00;;;;5028902;28;20235;-78
2021/10/25 00:41:20;;;;;;;4.20;3.17;;;;;12.90;101681.00;;;;5027560;28;20216;-78
2021/10/25 00:43:47;;;;;;;3.67;3.15;;;;;12.90;101675.00;;;;5029196;28;20207;-78
2021/10/25 00:46:14;;;;;;;6.20;3.72;;;;;12.90;101676.00;;;;5032602;28;20200;-78
2021/10/25 00:48:42;;;;;;;4.50;3.28;;;;;12.90;101672.00;;;;5038936;28;20204;-77
2021/10/25 00:51:10;;;;;;;3.70;3.15;;;;;12.90;101671.00;;;;5040253;28;20221;-78
2021/10/25 00:53:38;;;;;;;3.33;2.75;;;;;12.90;101671.00;;;;5027997;28;20215;-78
2021/10/25 00:56:06;;;;;;;3.65;3.08;;;;;12.90;101673.00;;;;5028190;28;20246;-78
2021/10/25 00:58:36;;;;;;;4.70;2.55;;;;;12.90;101686.00;;;;5027887;28;20323;-78
2021/10/25 01:01:03;;;;;;;4.20;3.28;;;;;13.00;101679.00;;;;5029374;28;20231;-78
2021/10/25 01:03:31;;;;;;;4.22;3.47;;;;;13.00;101681.00;;;;5027461;28;20218;-78
2021/10/25 01:05:59;;;;;;;5.57;3.13;;;;;13.00;101679.00;;;;5028255;28;20275;-78
2021/10/25 01:08:29;;;;;;;6.95;3.95;;;;;13.10;101682.00;;;;5028702;28;20219;-78
2021/10/25 01:10:58;;;;;;;5.22;2.92;;;;;13.10;101672.00;;;;5027599;28;20292;-78
2021/10/25 01:13:26;;;;;;;4.88;3.22;;;;;13.10;101675.00;;;;5029454;28;20202;-78
2021/10/25 01:15:54;;;;;;;4.45;3.67;;;;;13.20;101671.00;;;;5031182;28;20192;-77
2021/10/25 01:18:22;;;;;;;5.72;3.30;;;;;13.20;101671.00;;;;5052529;28;20211;-78
2021/10/25 01:20:50;;;;;;;6.93;3.88;;;;;13.30;101665.00;;;;5055461;28;20236;-78
2021/10/25 01:23:18;;;;;;;4.18;2.88;;;;;13.30;101670.00;;;;5031556;28;20572;-78
2021/10/25 01:25:45;;;;;;;5.43;3.60;;;;;13.40;101660.00;;;;5032322;28;20206;-78
2021/10/25 01:28:13;;;;;;;3.45;2.97;;;;;13.40;101664.00;;;;5034443;28;20200;-78
2021/10/25 01:30:40;;;;;;;4.00;3.35;;;;;13.50;101678.00;;;;5035473;28;20203;-78
2021/10/25 01:33:12;;;;;;;4.43;3.67;;;;;13.50;101668.00;;;;5032150;28;20671;-78
2021/10/25 01:35:39;;;;;;;6.93;3.30;;;;;13.60;101658.00;;;;5035899;28;20282;-78
2021/10/25 01:38:08;;;;;;;4.55;3.75;;;;;13.60;101666.00;;;;5038247;28;20200;-78
2021/10/25 01:40:36;;;;;;;5.88;3.42;;;;;13.60;101667.00;;;;5050281;28;20232;-78
2021/10/25 01:43:04;;;;;;;4.10;3.28;;;;;13.70;101666.00;;;;5042442;28;20208;-78
2021/10/25 01:45:32;;;;;;;5.85;3.50;;;;;13.70;101669.00;;;;5031212;28;20729;-78
2021/10/25 01:47:59;;;;;;;4.47;3.25;;;;;13.80;101660.00;;;;5030683;28;20200;-78
2021/10/25 01:50:27;;;;;;;5.18;3.20;;;;;13.80;101666.00;;;;5031884;28;20208;-78
2021/10/25 01:52:55;;;;;;;4.93;3.45;;;;;13.90;101659.00;;;;5032146;28;20570;-78
2021/10/25 01:55:24;;;;;;;5.68;3.17;;;;;13.90;101659.00;;;;5033633;28;20285;-78
2021/10/25 01:57:52;;;;;;;5.18;3.13;;;;;14.00;101658.00;;;;5030694;28;20196;-78
2021/10/25 02:00:19;;;;;;;4.53;3.65;;;;;14.00;101654.00;;;;5032533;28;20214;-78
2021/10/25 02:02:47;;;;;;;3.65;3.20;;;;;14.10;101654.00;;;;5031012;28;20750;-79
2021/10/25 02:05:14;;;;;;;7.82;3.10;;;;;14.10;101651.00;;;;5029979;28;20223;-78
2021/10/25 02:07:41;;;;;;;3.42;3.00;;;;;14.10;101648.00;;;;5034510;28;20662;-78
2021/10/25 02:10:09;;;;;;;4.65;3.50;;;;;14.20;101650.00;;;;5032392;28;20208;-78
2021/10/25 02:12:38;;;;;;;5.55;3.50;;;;;14.20;101652.00;;;;5037295;28;20201;-78
2021/10/25 02:15:06;;;;;;;4.22;3.35;;;;;14.30;101647.00;;;;5030231;28;20212;-79
2021/10/25 02:17:33;;;;;;;4.30;3.05;;;;;14.30;101639.00;;;;5034583;28;20576;-78
2021/10/25 02:20:01;;;;;;;5.45;3.35;;;;;14.30;101638.00;;;;5033140;28;20220;-78
2021/10/25 02:22:28;;;;;;;5.15;3.55;;;;;14.40;101641.00;;;;5030589;28;20246;-78
2021/10/25 02:24:56;;;;;;;3.85;3.15;;;;;14.40;101627.00;;;;5042359;28;20210;-79
2021/10/25 02:27:24;;;;;;;4.72;3.53;;;;;14.40;101621.00;;;;5034772;28;20214;-78
2021/10/25 02:29:52;;;;;;;4.32;3.22;;;;;14.50;101618.00;;;;5030224;28;20208;-78
2021/10/25 02:32:20;;;;;;;3.75;2.97;;;;;14.50;101614.00;;;;5036634;28;20200;-78
2021/10/25 02:34:47;;;;;;;4.07;3.42;;;;;14.50;101613.00;;;;5044809;28;20210;-78
2021/10/25 02:37:15;;;;;;;5.25;3.17;;;;;14.60;101602.00;;;;5047591;28;20203;-78
2021/10/25 02:39:43;;;;;;;5.43;3.08;;;;;14.60;101602.00;;;;5031505;28;20208;-78
2021/10/25 02:42:11;;;;;;;3.65;3.05;;;;;14.60;101616.00;;;;5035501;28;20240;-78
2021/10/25 02:44:39;;;;;;;3.58;2.60;;;;;14.60;101613.00;;;;5029966;28;20191;-78
2021/10/25 02:47:08;;;;;;;3.75;3.03;;;;;14.60;101616.00;;;;5029219;28;20197;-78
2021/10/25 02:49:35;;;;;;;3.92;3.47;;;;;14.70;101607.00;;;;5030090;28;20219;-78
2021/10/25 02:52:02;;;;;;;5.93;3.90;;;;;14.70;101606.00;;;;5030668;28;20201;-78
2021/10/25 02:54:30;;;;;;;4.50;3.47;;;;;14.70;101605.00;;;;5030826;28;20200;-78
2021/10/25 02:56:57;;;;;;;3.92;3.03;;;;;14.80;101602.00;;;;5029949;28;20203;-78
2021/10/25 02:59:24;;;;;;;4.90;3.53;;;;;14.80;101599.00;;;;5030317;28;20204;-79
2021/10/25 03:01:52;;;;;;;3.92;3.47;;;;;14.80;101597.00;;;;5037889;28;20221;-78
2021/10/25 03:04:20;;;;;;;4.10;3.22;;;;;14.80;101596.00;;;;5029862;28;20219;-78
2021/10/25 03:06:48;;;;;;;4.00;3.30;;;;;14.80;101603.00;;;;5030293;28;20702;-78
2021/10/25 03:09:15;;;;;;;4.00;3.10;;;;;14.90;101599.00;;;;5029212;28;20196;-78
2021/10/25 03:11:42;;;;;;;3.70;2.72;;;;;14.90;101600.00;;;;5029407;28;20219;-78
2021/10/25 03:14:09;;;;;;;3.83;2.90;;;;;14.90;101595.00;;;;5036873;28;20208;-79
2021/10/25 03:16:37;;;;;;;6.28;3.40;;;;;14.90;101595.00;;;;5033385;28;20647;-79
2021/10/25 03:19:04;;;;;;;4.57;3.25;;;;;15.00;101598.00;;;;5031087;28;20624;-78
2021/10/25 03:21:33;;;;;;;5.45;3.22;;;;;15.00;101603.00;;;;5029625;28;20690;-78
2021/10/25 03:24:00;;;;;;;4.13;3.00;;;;;15.00;101595.00;;;;5029030;28;20201;-78
2021/10/25 03:26:28;;;;;;;3.85;2.88;;;;;15.00;101603.00;;;;5029535;28;20192;-78
2021/10/25 03:28:55;;;;;;;4.28;3.17;;;;;15.00;101602.00;;;;5029328;28;20204;-79
2021/10/25 03:31:23;;;;;;;5.00;3.38;;;;;15.10;101604.00;;;;5029380;28;20334;-79
2021/10/25 03:33:51;;;;;;;4.18;3.00;;;;;15.10;101602.00;;;;5032210;28;20207;-79
2021/10/25 03:36:21;;;;;;;4.22;3.17;;;;;15.10;101593.00;;;;5035290;28;20199;-79
2021/10/25 03:38:50;;;;;;;4.30;3.30;;;;;15.10;101596.00;;;;5046884;28;20193;-79
2021/10/25 03:41:21;;;;;;;3.78;3.08;;;;;15.10;101595.00;;;;5046807;28;20781;-79
2021/10/25 03:43:53;;;;;;;3.40;2.97;;;;;15.10;101592.00;;;;5039039;28;20568;-78
2021/10/25 03:46:27;;;;;;;3.83;2.58;;;;;15.20;101598.00;;;;5038177;28;20691;-79
2021/10/25 03:48:58;;;;;;;4.75;3.50;;;;;15.20;101592.00;;;;5028875;28;20192;-78
2021/10/25 03:51:26;;;;;;;3.20;2.90;;;;;15.20;101596.00;;;;5036112;28;20238;-78
2021/10/25 03:54:03;;;;;;;6.30;3.85;;;;;15.20;101594.00;;;;5041366;28;20197;-78
2021/10/25 03:56:47;;;;;;;5.10;3.47;;;;;15.20;101599.00;;;;5028154;28;20612;-79
2021/10/25 03:59:27;;;;;;;4.00;3.15;;;;;15.20;101595.00;;;;5032790;28;20674;-78
2021/10/25 04:02:16;;;;;;;3.90;3.10;;;;;15.20;101590.00;;;;5032616;28;20602;-78
2021/10/25 04:27:15;;;;;;;4.47;3.13;;;;;15.30;101589.00;;;;5033667;28;20254;-78
2021/10/25 04:29:45;;;;;;;3.13;2.65;;;;;15.40;101593.00;;;;5046616;28;20242;-78
2021/10/25 04:32:12;;;;;;;4.75;2.80;;;;;15.40;101596.00;;;;5028520;28;20200;-79
2021/10/25 04:34:39;;;;;;;6.38;2.97;;;;;15.40;101594.00;;;;5030510;28;20207;-78
2021/10/25 04:37:06;;;;;;;4.80;2.92;;;;;15.40;101585.00;;;;5033998;28;20204;-78
2021/10/25 04:39:34;;;;;;;4.43;3.03;;;;;15.40;101585.00;;;;5034310;28;20204;-79
2021/10/25 04:42:03;;;;;;;3.63;3.00;;;;;15.40;101578.00;;;;5042140;28;20231;-78
2021/10/25 04:44:30;;;;;;;3.95;3.25;;;;;15.40;101584.00;;;;5050095;28;20200;-79
2021/10/25 04:46:57;;;;;;;4.45;3.28;;;;;15.50;101584.00;;;;5047813;28;20219;-79
2021/10/25 04:49:25;;;;;;;3.80;2.70;;;;;15.50;101572.00;;;;5042464;28;20196;-79
2021/10/25 04:51:52;;;;;;;6.00;3.05;;;;;15.50;101573.00;;;;5034668;28;20196;-78
2021/10/25 04:54:19;;;;;;;4.38;2.88;;;;;15.50;101576.00;;;;5052274;28;20191;-78
2021/10/25 04:56:47;;;;;;;4.00;2.65;;;;;15.50;101576.00;;;;5042203;28;20625;-79
2021/10/25 04:59:17;;;;;;;3.15;2.85;;;;;15.50;101579.00;;;;5032430;28;20216;-78
2021/10/25 05:01:44;;;;;;;3.90;3.13;;;;;15.60;101583.00;;;;5032111;28;20231;-79
2021/10/25 05:04:11;;;;;;;3.88;2.97;;;;;15.60;101575.00;;;;5031544;28;20226;-78
2021/10/25 05:06:39;;;;;;;3.40;2.90;;;;;15.60;101574.00;;;;5032351;28;20654;-77
2021/10/25 05:09:08;;;;;;;4.25;2.42;;;;;15.60;101574.00;;;;5031687;28;20204;-78
2021/10/25 05:11:35;;;;;;;4.75;3.00;;;;;15.60;101576.00;;;;5037852;28;20231;-78
2021/10/25 05:14:03;;;;;;;3.28;2.55;;;;;15.60;101569.00;;;;5032433;28;20195;-78
2021/10/25 05:16:31;;;;;;;3.20;2.05;;;;;15.70;101565.00;;;;5036022;28;20289;-78
2021/10/25 05:18:59;;;;;;;2.97;2.38;;;;;15.70;101564.00;;;;5040867;28;20200;-79
2021/10/25 05:21:26;;;;;;;2.53;2.15;;;;;15.70;101570.00;;;;5035810;28;20231;-77
2021/10/25 05:23:53;;;;;;;4.25;2.13;;;;;15.70;101565.00;;;;5034739;28;20255;-77
2021/10/25 05:26:21;;;;;;;6.10;3.58;;;;;15.70;101566.00;;;;5032073;28;20296;-77
2021/10/25 05:28:48;;;;;;;3.33;2.78;;;;;15.80;101548.00;;;;5037871;28;20216;-78
2021/10/25 05:31:16;;;;;;;3.42;2.72;;;;;15.80;101560.00;;;;5038533;28;20365;-78
2021/10/25 05:33:44;;;;;;;3.22;2.47;;;;;15.80;101558.00;;;;5041170;28;20654;-78
2021/10/25 05:36:12;;;;;;;5.25;3.17;;;;;15.80;101557.00;;;;5031808;28;20207;-77
2021/10/25 05:38:40;;;;;;;3.85;3.00;;;;;15.80;101566.00;;;;5033878;28;20199;-78
2021/10/25 05:41:09;;;;;;;4.28;2.75;;;;;15.80;101558.00;;;;5045768;28;20238;-77
2021/10/25 05:43:36;;;;;;;3.53;2.85;;;;;15.80;101554.00;;;;5034740;28;20208;-75
2021/10/25 05:46:03;;;;;;;4.13;2.50;;;;;15.80;101563.00;;;;5031865;28;20207;-76
2021/10/25 05:48:32;;;;;;;3.63;2.78;;;;;15.90;101562.00;;;;5035164;28;20203;-76
2021/10/25 05:51:01;;;;;;;5.10;3.05;;;;;15.90;101549.00;;;;5037526;28;20764;-77
2021/10/25 05:53:29;;;;;;;4.82;2.75;;;;;15.90;101553.00;;;;5030955;28;20235;-77
2021/10/25 05:55:57;;;;;;;6.85;2.95;;;;;15.90;101553.00;;;;5048529;28;20207;-77
2021/10/25 05:58:24;;;;;;;3.85;2.80;;;;;15.90;101550.00;;;;5033083;28;20590;-77
2021/10/25 06:00:54;;;;;;;4.40;2.90;;;;;15.90;101545.00;;;;5033324;28;20744;-75
2021/10/25 06:03:24;;;;;;;4.00;3.00;;;;;15.90;101544.00;;;;5049718;28;20596;-76
2021/10/25 06:05:52;;;;;;;3.63;2.80;;;;;16.00;101539.00;;;;5041082;28;20208;-76
2021/10/25 06:08:21;;;;;;;3.75;2.80;;;;;16.00;101547.00;;;;5030222;28;20204;-77
2021/10/25 06:10:49;;;;;;;3.65;2.53;;;;;16.00;101541.00;;;;5040336;28;20211;-77
2021/10/25 06:13:23;;;;;;;4.95;2.90;;;;;16.00;101542.00;;;;5030189;28;20200;-77
2021/10/25 06:15:57;;;;;;;3.25;2.30;;;;;16.00;101536.00;;;;5030612;28;20372;-77
2021/10/25 06:18:25;;;;;;;5.45;3.15;;;;;16.00;101543.00;;;;5042734;28;20196;-77
2021/10/25 06:20:52;;;;;;;3.85;2.75;;;;;16.00;101542.00;;;;5030036;28;20704;-76
2021/10/25 06:23:21;;;;;;;3.53;2.70;;;;;16.00;101543.00;;;;5031269;28;20208;-77
2021/10/25 06:25:51;;;;;;;4.20;3.22;;;;;16.10;101549.00;;;;5030066;28;20678;-77
2021/10/25 06:28:19;;;;;;;5.60;2.47;;;;;16.10;101549.00;;;;5031472;28;20554;-77
2021/10/25 06:30:54;;;;;;;3.15;2.45;;;;;16.10;101554.00;;;;5050111;28;20245;-77
2021/10/25 06:33:22;;;;;;;6.30;3.10;;;;;16.10;101556.00;;;;5037970;28;20658;-76
2021/10/25 06:36:00;;;;;;;4.80;2.75;;;;;16.10;101553.00;;;;5032443;28;20207;-76
2021/10/25 06:38:33;;;;;;;3.50;2.60;;;;;16.10;101552.00;;;;5040309;28;20578;-77
2021/10/25 06:41:01;;;;;;;3.20;2.45;;;;;16.20;101554.00;;;;5041994;28;20224;-76
2021/10/25 06:43:28;;;;;;;5.22;2.78;;;;;16.20;101560.00;;;;5030227;28;20200;-77
2021/10/25 06:45:55;;;;;;;3.63;2.83;;;;;16.20;101557.00;;;;5030591;28;20204;-77
2021/10/25 06:48:23;;;;;;;5.10;2.58;;;;;16.20;101557.00;;;;5031767;28;20701;-77
2021/10/25 06:50:51;;;;;;;4.18;2.80;;;;;16.20;101559.00;;;;5030445;28;20196;-77
2021/10/25 06:53:19;;;;;;;3.72;2.45;;;;;16.30;101556.00;;;;5032352;28;20196;-78
2021/10/25 06:55:47;;;;;;;3.38;2.22;;;;;16.30;101559.00;;;;5029534;28;20203;-77
2021/10/25 06:58:15;;;;;;;4.78;3.20;;;;;16.30;101564.00;;;;5034675;28;20234;-77
2021/10/25 07:00:42;;;;;;;4.40;3.03;;;;;16.30;101564.00;;;;5031417;28;20204;-79
2021/10/25 07:03:11;;;;;;;3.65;2.88;;;;;16.30;101568.00;;;;5029360;28;20215;-78
2021/10/25 07:05:39;;;;;;;4.22;2.38;;;;;16.30;101561.00;;;;5046090;28;20283;-79
2021/10/25 07:08:07;;;;;;;3.67;2.42;;;;;16.30;101565.00;;;;5043285;28;20208;-78
2021/10/25 07:10:36;;;;;;;3.45;2.25;;;;;16.30;101565.00;;;;5048922;28;20210;-78
2021/10/25 07:13:06;;;;;;;4.20;2.53;;;;;16.30;101567.00;;;;5041893;28;20238;-78
2021/10/25 07:15:36;;;;;;;3.28;2.75;;;;;16.40;101568.00;;;;5057337;28;20256;-78
2021/10/25 07:18:10;;;;;;;3.70;2.63;;;;;16.40;101571.00;;;;5041106;28;20200;-79
2021/10/25 07:20:57;;;;;;;2.85;2.38;;;;;16.40;101573.00;;;;5043873;28;20196;-79
2021/10/25 07:23:37;;;;;;;3.05;2.42;;;;;16.40;101579.00;;;;5046946;28;20207;-77
2021/10/25 07:26:37;;;;;;;3.88;3.13;;;;;16.40;101571.00;;;;5042075;28;20200;-79
2021/10/25 08:07:38;;;;;;;9.70;2.75;;;;;16.60;101594.00;;;;5026233;28;20200;-77
2021/10/25 08:10:11;;;;;;;3.63;2.70;;;;;16.60;101587.00;;;;5038607;28;20206;-77
2021/10/25 08:12:44;;;;;;;4.18;2.90;;;;;16.60;101593.00;;;;5028218;28;20205;-77
2021/10/25 08:15:19;;;;;;;4.75;3.00;;;;;16.70;101586.00;;;;5028640;28;20556;-77
2021/10/25 08:17:51;;;;;;;3.33;2.63;;;;;16.70;101592.00;;;;5040141;28;20200;-76
2021/10/25 08:20:18;;;;;;;4.85;3.28;;;;;16.70;101603.00;;;;5032752;28;20620;-77
2021/10/25 08:22:46;;;;;;;3.65;2.67;;;;;16.70;101596.00;;;;5039704;28;20238;-77
2021/10/25 08:25:13;;;;;;;3.22;2.35;;;;;16.70;101590.00;;;;5030309;28;20200;-77
2021/10/25 08:27:43;;;;;;;6.13;3.25;;;;;16.80;101600.00;;;;5031522;28;20212;-77
2021/10/25 08:30:13;;;;;;;3.58;2.83;;;;;16.80;101590.00;;;;5035525;28;20283;-77
2021/10/25 08:32:49;;;;;;;3.30;2.75;;;;;16.80;101591.00;;;;5041624;28;20211;-77
2021/10/25 08:35:29;;;;;;;3.42;2.58;;;;;16.70;101586.00;;;;5038667;28;20245;-77
2021/10/25 08:40:42;;;;;;;4.55;2.88;;;;;16.70;101590.00;;;;5031424;28;20203;-76
2021/10/25 08:43:11;;;;;;;4.55;2.55;;;;;16.80;101585.00;;;;5033128;28;20232;-77
2021/10/25 08:45:39;;;;;;;3.78;2.53;;;;;16.80;101589.00;;;;5040000;28;20600;-77
2021/10/25 08:48:08;;;;;;;4.53;3.10;;;;;16.80;101592.00;;;;5035386;28;20250;-80
2021/10/25 08:50:36;;;;;;;3.47;3.10;;;;;16.80;101589.00;;;;5026741;28;20208;-79
2021/10/25 08:53:06;;;;;;;3.60;2.45;;;;;16.80;101598.00;;;;5026342;28;20211;-80
2021/10/25 08:55:34;;;;;;;5.93;3.17;;;;;16.80;101597.00;;;;5038974;28;20203;-80
2021/10/25 08:58:02;;;;;;;3.72;2.35;;;;;16.80;101600.00;;;;5029636;28;20278;-79
2021/10/25 09:00:38;;;;;;;4.15;2.92;;;;;16.80;101596.00;;;;5030916;28;20206;-80
2021/10/25 09:03:07;;;;;;;4.28;3.05;;;;;16.80;101594.00;;;;5036805;28;20230;-80
2021/10/25 09:05:35;;;;;;;3.38;2.50;;;;;16.90;101594.00;;;;5027323;28;20208;-81
2021/10/25 09:08:04;;;;;;;5.85;3.33;;;;;16.90;101592.00;;;;5028755;28;20205;-80
2021/10/25 09:10:39;;;;;;;5.05;2.92;;;;;16.90;101595.00;;;;5029019;28;20192;-80
2021/10/25 09:13:08;;;;;;;4.00;3.22;;;;;16.90;101592.00;;;;5031941;28;20207;-80
2021/10/25 09:15:38;;;;;;;4.40;3.00;;;;;16.90;101588.00;;;;5036229;28;20202;-81
2021/10/25 09:18:09;;;;;;;5.03;3.40;;;;;16.90;101591.00;;;;5030029;28;20199;-80
2021/10/25 09:20:46;;;;;;;3.97;2.60;;;;;16.90;101588.00;;;;5035049;28;20200;-80
2021/10/25 09:23:16;;;;;;;4.28;3.03;;;;;17.00;101585.00;;;;5035014;28;20223;-79
2021/10/25 09:25:44;;;;;;;7.88;3.42;;;;;17.00;101585.00;;;;5030984;28;20203;-80
2021/10/25 09:28:24;;;;;;;4.05;3.03;;;;;17.00;101587.00;;;;5039722;28;20554;-81
2021/10/25 09:30:53;;;;;;;5.88;3.00;;;;;17.10;101575.00;;;;5030672;28;20218;-79
2021/10/25 09:33:22;;;;;;;6.22;3.35;;;;;17.10;101574.00;;;;5036938;28;20218;-80
2021/10/25 09:35:58;;;;;;;4.30;2.88;;;;;17.10;101580.00;;;;5033586;28;20228;-80
2021/10/25 09:38:33;;;;;;;4.43;3.00;;;;;17.20;101577.00;;;;5039159;28;20192;-80
2021/10/25 09:49:51;;;;;;;6.07;3.28;;;;;17.30;101573.00;;;;5031507;28;20204;-79
2021/10/25 09:52:27;;;;;;;5.70;3.25;;;;;17.30;101568.00;;;;5037170;28;20558;-79
2021/10/25 09:55:02;;;;;;;4.38;2.90;;;;;17.30;101575.00;;;;5035352;28;20577;-79
2021/10/25 09:57:39;;;;;;;6.22;3.35;;;;;17.40;101575.00;;;;5039168;28;20253;-79
2021/10/25 10:00:08;;;;;;;6.45;3.03;;;;;17.40;101576.00;;;;5040520;28;20203;-79
2021/10/25 10:02:36;;;;;;;7.20;3.50;;;;;17.40;101571.00;;;;5040120;28;20585;-80
2021/10/25 10:05:06;;;;;;;5.55;3.20;;;;;17.40;101568.00;;;;5034701;28;20259;-79
2021/10/25 10:07:35;;;;;;;4.43;3.60;;;;;17.40;101574.00;;;;5032389;28;20204;-78
2021/10/25 10:10:04;;;;;;;6.60;3.58;;;;;17.50;101571.00;;;;5037253;28;20207;-78
2021/10/25 10:12:32;;;;;;;4.25;3.42;;;;;17.50;101569.00;;;;5030762;28;20204;-78
2021/10/25 10:15:01;;;;;;;5.97;3.15;;;;;17.60;101569.00;;;;5032450;28;20275;-77
2021/10/25 10:17:32;;;;;;;6.07;3.53;;;;;17.60;101576.00;;;;5041708;28;20195;-79
2021/10/25 10:20:04;;;;;;;6.38;3.40;;;;;17.60;101576.00;;;;5031362;28;20212;-78
2021/10/25 10:22:35;;;;;;;6.82;3.80;;;;;17.60;101569.00;;;;5033940;28;20230;-78
2021/10/25 10:25:03;;;;;;;5.55;3.70;;;;;17.70;101571.00;;;;5030506;28;20199;-79
2021/10/25 10:27:30;;;;;;;5.22;3.15;;;;;17.70;101567.00;;;;5032737;28;20200;-78
2021/10/25 10:29:59;;;;;;;5.15;3.63;;;;;17.70;101566.00;;;;5035387;28;20204;-76
2021/10/25 10:32:28;;;;;;;3.60;2.85;;;;;17.80;101557.00;;;;5036892;28;20203;-78
2021/10/25 10:35:01;;;;;;;5.05;3.70;;;;;17.80;101553.00;;;;5037907;28;20207;-77
2021/10/25 10:37:29;;;;;;;4.60;3.45;;;;;17.80;101555.00;;;;5040022;28;20242;-76
2021/10/25 10:40:05;;;;;;;4.45;3.30;;;;;17.80;101560.00;;;;5036583;28;20286;-77
2021/10/25 10:42:33;;;;;;;4.07;3.60;;;;;18.00;101557.00;;;;5043432;28;20296;-76
2021/10/25 10:45:03;;;;;;;3.78;3.15;;;;;18.00;101566.00;;;;5027987;28;20204;-77
2021/10/25 10:47:38;;;;;;;5.18;3.33;;;;;18.10;101574.00;;;;5036070;28;20655;-77
2021/10/25 10:50:17;;;;;;;3.67;3.10;;;;;18.10;101575.00;;;;5030171;28;20192;-76
2021/10/25 10:52:47;;;;;;;5.25;3.58;;;;;18.20;101575.00;;;;5030996;28;20303;-77
2021/10/25 10:55:25;;;;;;;6.13;3.58;;;;;18.10;101568.00;;;;5032273;28;20208;-78
2021/10/25 11:00:31;;;;;;;5.32;3.80;;;;;18.20;101560.00;;;;5029284;28;20666;-78
2021/10/25 11:03:01;;;;;;;5.38;4.07;;;;;18.30;101567.00;;;;5039509;28;20231;-78
2021/10/25 11:05:31;;;;;;;4.70;3.63;;;;;18.40;101562.00;;;;5038363;28;20215;-77
2021/10/25 11:08:08;;;;;;;6.00;4.32;;;;;18.40;101559.00;;;;5035543;28;20219;-78
2021/10/25 11:10:39;;;;;;;11.90;4.38;;;;;18.50;101559.00;;;;5031781;28;20658;-78
2021/10/25 11:13:08;;;;;;;4.97;3.55;;;;;18.60;101565.00;;;;5031695;28;20289;-78
2021/10/25 11:15:39;;;;;;;5.43;3.72;;;;;18.70;101559.00;;;;5033379;28;20219;-78
2021/10/25 11:18:07;;;;;;;5.68;3.70;;;;;18.70;101563.00;;;;5033580;28;20203;-78
2021/10/25 11:20:35;;;;;;;4.00;3.40;;;;;18.80;101566.00;;;;5036012;28;20207;-78
2021/10/25 11:23:04;;;;;;;5.63;3.45;;;;;18.80;101570.00;;;;5038719;28;20312;-78
2021/10/25 11:25:41;;;;;;;4.47;3.40;;;;;18.80;101568.00;;;;5036835;28;20572;-78
2021/10/25 11:28:16;;;;;;;5.22;3.83;;;;;18.80;101562.00;;;;5026558;28;20210;-77
2021/10/25 11:30:43;;;;;;;3.70;3.22;;;;;18.90;101567.00;;;;5039609;28;20219;-78
2021/10/25 11:33:11;;;;;;;4.00;3.13;;;;;18.90;101559.00;;;;5033161;28;20203;-77
2021/10/25 11:35:48;;;;;;;4.55;3.33;;;;;18.90;101564.00;;;;5034159;28;20215;-79
2021/10/25 11:38:16;;;;;;;4.53;3.67;;;;;19.00;101562.00;;;;5038207;28;20234;-80
2021/10/25 11:40:45;;;;;;;3.92;3.33;;;;;18.90;101564.00;;;;5041393;28;20236;-80
2021/10/25 11:43:12;;;;;;;7.20;3.60;;;;;19.00;101560.00;;;;5037869;28;20228;-81
2021/10/25 11:45:41;;;;;;;4.32;3.30;;;;;19.00;101548.00;;;;5044492;28;20200;-81
2021/10/25 11:48:08;;;;;;;6.43;3.45;;;;;19.00;101555.00;;;;5035876;28;20192;-82
2021/10/25 11:50:37;;;;;;;3.92;3.00;;;;;19.10;101555.00;;;;5035292;28;20209;-82
2021/10/25 11:53:07;;;;;;;6.15;4.18;;;;;19.10;101555.00;;;;5029889;28;20223;-81
2021/10/25 11:55:36;;;;;;;4.70;3.42;;;;;19.10;101550.00;;;;5032707;28;20200;-82
2021/10/25 11:58:06;;;;;;;4.63;2.95;;;;;19.20;101547.00;;;;5034300;28;20192;-81
2021/10/25 12:00:38;;;;;;;5.45;3.72;;;;;19.20;101546.00;;;;5038834;28;20207;-81
2021/10/25 12:03:09;;;;;;;4.43;3.55;;;;;19.20;101545.00;;;;5033415;28;20224;-81
2021/10/25 12:05:37;;;;;;;4.90;3.97;;;;;19.20;101538.00;;;;5029290;28;20200;-81
2021/10/25 12:08:08;;;;;;;6.28;3.72;;;;;19.30;101537.00;;;;5032666;28;20199;-81
2021/10/25 12:10:36;;;;;;;5.70;4.07;;;;;19.30;101535.00;;;;5039226;28;20239;-81
2021/10/25 12:13:07;;;;;;;4.50;3.63;;;;;19.30;101535.00;;;;5033491;28;20204;-81
2021/10/25 12:15:36;;;;;;;5.20;4.47;;;;;19.30;101537.00;;;;5027933;28;20223;-81
2021/10/25 12:18:06;;;;;;;5.32;3.85;;;;;19.30;101531.00;;;;5038967;28;20265;-80
2021/10/25 12:20:35;;;;;;;6.10;4.78;;;;;19.30;101533.00;;;;5027377;28;20207;-80
2021/10/25 12:23:03;;;;;;;4.32;3.92;;;;;19.40;101535.00;;;;5027206;28;20224;-80
2021/10/25 12:25:33;;;;;;;6.03;4.60;;;;;19.40;101532.00;;;;5027361;28;20679;-80
2021/10/25 12:28:02;;;;;;;6.38;4.15;;;;;19.40;101525.00;;;;5029769;28;20196;-80
2021/10/25 12:30:30;;;;;;;4.28;3.88;;;;;19.40;101524.00;;;;5030203;28;20201;-81
2021/10/25 12:32:59;;;;;;;4.82;4.28;;;;;19.40;101519.00;;;;5046067;28;20926;-80
2021/10/25 12:35:35;;;;;;;5.68;4.50;;;;;19.40;101517.00;;;;5055508;28;20199;-80
2021/10/25 12:38:04;;;;;;;5.57;3.85;;;;;19.50;101515.00;;;;5029669;28;20286;-80
2021/10/25 12:40:38;;;;;;;6.32;3.63;;;;;19.50;101515.00;;;;5027601;28;20215;-81
2021/10/25 12:43:06;;;;;;;4.57;4.05;;;;;19.60;101514.00;;;;5027833;28;20269;-81
2021/10/25 12:45:41;;;;;;;4.88;3.90;;;;;19.60;101509.00;;;;5040694;28;20212;-80
2021/10/25 12:48:10;;;;;;;6.22;4.20;;;;;19.60;101513.00;;;;5040947;28;20192;-81
2021/10/25 12:50:40;;;;;;;4.90;3.88;;;;;19.70;101508.00;;;;5027390;28;20679;-81
2021/10/25 12:53:10;;;;;;;4.70;4.18;;;;;19.70;101507.00;;;;5032939;28;20246;-80
2021/10/25 12:55:39;;;;;;;6.03;4.18;;;;;19.70;101512.00;;;;5038617;28;20203;-80
2021/10/25 12:58:08;;;;;;;5.07;4.15;;;;;19.70;101508.00;;;;5051102;28;20925;-80
2021/10/25 13:00:39;;;;;;;5.20;4.18;;;;;19.80;101508.00;;;;5040937;28;20261;-81
2021/10/25 13:03:10;;;;;;;5.38;4.47;;;;;19.70;101507.00;;;;5032571;28;20227;-80
2021/10/25 13:05:39;;;;;;;5.85;4.18;;;;;19.80;101507.00;;;;5036056;28;20601;-81
2021/10/25 13:08:08;;;;;;;5.13;4.30;;;;;19.80;101498.00;;;;5033561;28;20748;-81
2021/10/25 13:10:39;;;;;;;6.13;3.97;;;;;19.80;101502.00;;;;5032619;28;20202;-81
2021/10/25 13:13:09;;;;;;;5.75;4.43;;;;;19.80;101501.00;;;;5034086;28;20669;-81
2021/10/25 13:15:39;;;;;;;6.18;4.32;;;;;19.80;101510.00;;;;5035987;28;20250;-82
2021/10/25 13:18:08;;;;;;;4.97;4.45;;;;;19.80;101510.00;;;;5043787;28;20550;-82
2021/10/25 13:20:40;;;;;;;4.38;3.97;;;;;19.90;101503.00;;;;5031897;28;20196;-83
2021/10/25 13:23:08;;;;;;;4.57;3.95;;;;;19.90;101514.00;;;;5035118;28;20625;-83
2021/10/25 13:25:36;;;;;;;5.07;4.55;;;;;19.90;101506.00;;;;5036311;28;20208;-80
2021/10/25 13:28:06;;;;;;;5.05;4.55;;;;;19.90;101509.00;;;;5034842;28;20203;-80
2021/10/25 13:30:34;;;;;;;8.05;4.75;;;;;19.90;101511.00;;;;5037794;28;20204;-79
2021/10/25 13:33:04;;;;;;;6.05;4.57;;;;;19.90;101507.00;;;;5047800;28;20203;-79
2021/10/25 13:35:32;;;;;;;6.20;4.63;;;;;19.90;101504.00;;;;5038598;28;20696;-80